Station Nord

KL  EN  DA
ASIAQ
Weather Now GREENLAND SURVEY
Updated [WGT/WGST] Temperature [°C] Wind [m/s] Air pressure [hPa] Relative humidity [%] Precipitation [mm]
Present Wind chill Speed Max
18.04 01:00-17,8-22,01,5 ⇒2,1100379n/a
18.04 00:00-18,10,01,0 ⇒1,5100475n/a
17.04 23:00-17,5-21,71,5 ⇒2,6100576n/a
17.04 22:00-15,7-22,53,1 ⇗3,6100569n/a
17.04 21:00-15,3-23,24,1 ⇑4,6100669n/a
17.04 20:00n/an/an/an/an/an/an/a
17.04 19:00-16,5-25,24,6 ⇗5,7100868n/a
17.04 18:00-15,6-25,86,7 ⇗9,8100965n/a
17.04 17:00-15,2-25,67,2 ⇗8,8101068n/a
17.04 16:00-15,6-24,55,1 ⇒5,7101169n/a
17.04 15:00-14,60,01,0 ⇙2,1101258n/a
17.04 14:00-14,90,01,0 ⇓1,5101460n/a
17.04 13:00-15,4-20,62,1 ⇐2,6101560n/a
17.04 12:00-14,0-21,03,6 ⇑4,1101660n/a
17.04 11:00-15,8-25,35,7 ⇗7,2101860n/a
17.04 10:00-17,7-28,46,7 ⇗7,7101961n/a
17.04 09:00-17,4-29,18,2 ⇗8,8102063n/a
17.04 08:00-15,6-19,51,5 ⇑2,6102158n/a
17.04 07:00-18,60,01,0 ⇑2,6102266n/a
17.04 06:00-16,4-21,72,1 ⇗3,6102357n/a
17.04 05:00-16,6-22,02,1 ⇗2,6102457n/a
17.04 04:00-16,9-25,74,6 ⇗5,1102462n/a
17.04 03:00-18,3-24,02,1 ⇗3,1102572n/a
17.04 02:00-20,2-24,81,5 ⇒2,6102670n/a
17.04 01:00-18,7-25,32,6 ⇗3,1102770n/a
Position: (81.603333333,-16.66333333)

[Back]